sensor_id;sensor_type;location;lat;lon;timestamp;P1;durP1;ratioP1;P2;durP2;ratioP2
60344;SDS011;46188;52.324;8.032;2023-01-19T00:00:09;11.82;;;7.25;;
60344;SDS011;46188;52.324;8.032;2023-01-19T00:02:36;11.05;;;7.05;;
60344;SDS011;46188;52.324;8.032;2023-01-19T00:05:02;10.23;;;7.15;;
60344;SDS011;46188;52.324;8.032;2023-01-19T00:07:31;11.68;;;8.15;;
60344;SDS011;46188;52.324;8.032;2023-01-19T00:09:56;11.63;;;7.63;;
60344;SDS011;46188;52.324;8.032;2023-01-19T00:12:23;12.70;;;7.28;;
60344;SDS011;46188;52.324;8.032;2023-01-19T00:14:49;9.95;;;8.13;;
60344;SDS011;46188;52.324;8.032;2023-01-19T00:17:14;12.75;;;7.97;;
60344;SDS011;46188;52.324;8.032;2023-01-19T00:19:39;12.40;;;7.25;;
60344;SDS011;46188;52.324;8.032;2023-01-19T00:22:05;11.82;;;7.88;;
60344;SDS011;46188;52.324;8.032;2023-01-19T00:24:31;12.32;;;6.53;;
60344;SDS011;46188;52.324;8.032;2023-01-19T00:26:56;14.32;;;7.13;;
60344;SDS011;46188;52.324;8.032;2023-01-19T00:29:22;16.08;;;8.20;;
60344;SDS011;46188;52.324;8.032;2023-01-19T00:31:48;13.38;;;8.07;;
60344;SDS011;46188;52.324;8.032;2023-01-19T00:34:14;14.40;;;8.25;;
60344;SDS011;46188;52.324;8.032;2023-01-19T00:36:40;13.90;;;8.27;;
60344;SDS011;46188;52.324;8.032;2023-01-19T00:39:05;11.65;;;7.82;;
60344;SDS011;46188;52.324;8.032;2023-01-19T00:41:31;16.55;;;9.15;;
60344;SDS011;46188;52.324;8.032;2023-01-19T00:44:15;14.23;;;8.18;;
60344;SDS011;46188;52.324;8.032;2023-01-19T00:46:40;10.98;;;7.68;;
60344;SDS011;46188;52.324;8.032;2023-01-19T00:49:06;12.07;;;8.38;;
60344;SDS011;46188;52.324;8.032;2023-01-19T00:51:31;10.95;;;8.40;;
60344;SDS011;46188;52.324;8.032;2023-01-19T00:53:57;16.27;;;8.32;;
60344;SDS011;46188;52.324;8.032;2023-01-19T00:56:28;10.90;;;8.50;;
60344;SDS011;46188;52.324;8.032;2023-01-19T00:58:54;10.80;;;7.75;;
60344;SDS011;46188;52.324;8.032;2023-01-19T01:01:20;15.75;;;9.02;;
60344;SDS011;46188;52.324;8.032;2023-01-19T01:03:45;15.63;;;8.68;;
60344;SDS011;46188;52.324;8.032;2023-01-19T01:06:10;13.48;;;8.23;;
60344;SDS011;46188;52.324;8.032;2023-01-19T01:08:36;11.05;;;8.63;;
60344;SDS011;46188;52.324;8.032;2023-01-19T01:11:01;13.30;;;8.77;;
60344;SDS011;46188;52.324;8.032;2023-01-19T01:13:27;15.68;;;9.18;;
60344;SDS011;46188;52.324;8.032;2023-01-19T01:15:53;11.93;;;8.27;;
60344;SDS011;46188;52.324;8.032;2023-01-19T01:18:19;13.60;;;9.02;;
60344;SDS011;46188;52.324;8.032;2023-01-19T01:20:45;14.30;;;9.38;;
60344;SDS011;46188;52.324;8.032;2023-01-19T01:23:11;12.70;;;9.10;;
60344;SDS011;46188;52.324;8.032;2023-01-19T01:25:37;13.45;;;8.40;;
60344;SDS011;46188;52.324;8.032;2023-01-19T01:28:03;13.07;;;8.35;;
60344;SDS011;46188;52.324;8.032;2023-01-19T01:30:32;15.93;;;8.52;;
60344;SDS011;46188;52.324;8.032;2023-01-19T01:32:59;14.70;;;9.63;;
60344;SDS011;46188;52.324;8.032;2023-01-19T01:35:24;18.85;;;9.82;;
60344;SDS011;46188;52.324;8.032;2023-01-19T01:37:50;17.20;;;9.65;;
60344;SDS011;46188;52.324;8.032;2023-01-19T01:40:16;13.82;;;9.40;;
60344;SDS011;46188;52.324;8.032;2023-01-19T01:42:42;13.15;;;8.60;;
60344;SDS011;46188;52.324;8.032;2023-01-19T01:47:59;13.35;;;8.90;;
60344;SDS011;46188;52.324;8.032;2023-01-19T01:50:39;14.52;;;9.63;;
60344;SDS011;46188;52.324;8.032;2023-01-19T01:53:33;15.10;;;10.55;;
60344;SDS011;46188;52.324;8.032;2023-01-19T01:56:02;14.13;;;10.05;;
60344;SDS011;46188;52.324;8.032;2023-01-19T01:58:31;16.90;;;10.57;;
60344;SDS011;46188;52.324;8.032;2023-01-19T02:00:58;13.15;;;9.40;;
60344;SDS011;46188;52.324;8.032;2023-01-19T02:03:42;16.13;;;9.80;;
60344;SDS011;46188;52.324;8.032;2023-01-19T02:06:08;14.23;;;10.02;;
60344;SDS011;46188;52.324;8.032;2023-01-19T02:08:49;16.67;;;9.90;;
60344;SDS011;46188;52.324;8.032;2023-01-19T02:11:34;15.05;;;9.70;;
60344;SDS011;46188;52.324;8.032;2023-01-19T02:14:19;13.88;;;9.98;;
60344;SDS011;46188;52.324;8.032;2023-01-19T02:16:44;13.45;;;10.13;;
60344;SDS011;46188;52.324;8.032;2023-01-19T02:19:11;16.98;;;11.82;;
60344;SDS011;46188;52.324;8.032;2023-01-19T02:21:45;14.70;;;10.25;;
60344;SDS011;46188;52.324;8.032;2023-01-19T02:24:18;17.50;;;9.95;;
60344;SDS011;46188;52.324;8.032;2023-01-19T02:26:44;17.80;;;10.88;;
60344;SDS011;46188;52.324;8.032;2023-01-19T02:29:13;16.05;;;10.15;;
60344;SDS011;46188;52.324;8.032;2023-01-19T02:31:41;15.88;;;10.25;;
60344;SDS011;46188;52.324;8.032;2023-01-19T02:34:09;15.73;;;10.85;;
60344;SDS011;46188;52.324;8.032;2023-01-19T02:36:44;16.92;;;10.40;;
60344;SDS011;46188;52.324;8.032;2023-01-19T02:39:26;16.48;;;11.23;;
60344;SDS011;46188;52.324;8.032;2023-01-19T02:42:00;15.70;;;11.55;;
60344;SDS011;46188;52.324;8.032;2023-01-19T02:44:29;19.30;;;11.55;;
60344;SDS011;46188;52.324;8.032;2023-01-19T02:46:56;15.25;;;11.18;;
60344;SDS011;46188;52.324;8.032;2023-01-19T02:49:22;16.80;;;10.75;;
60344;SDS011;46188;52.324;8.032;2023-01-19T02:51:48;19.33;;;11.75;;
60344;SDS011;46188;52.324;8.032;2023-01-19T03:05:30;19.58;;;12.02;;
60344;SDS011;46188;52.324;8.032;2023-01-19T03:08:13;20.33;;;11.77;;
60344;SDS011;46188;52.324;8.032;2023-01-19T03:10:53;17.88;;;11.00;;
60344;SDS011;46188;52.324;8.032;2023-01-19T03:16:16;15.77;;;11.32;;
60344;SDS011;46188;52.324;8.032;2023-01-19T03:18:45;16.15;;;11.23;;
60344;SDS011;46188;52.324;8.032;2023-01-19T03:21:16;18.55;;;12.02;;
60344;SDS011;46188;52.324;8.032;2023-01-19T03:23:43;17.65;;;11.70;;
60344;SDS011;46188;52.324;8.032;2023-01-19T03:26:11;20.33;;;12.07;;
60344;SDS011;46188;52.324;8.032;2023-01-19T03:28:45;18.42;;;11.65;;
60344;SDS011;46188;52.324;8.032;2023-01-19T03:31:14;15.63;;;11.63;;
60344;SDS011;46188;52.324;8.032;2023-01-19T03:33:44;19.55;;;11.73;;
60344;SDS011;46188;52.324;8.032;2023-01-19T03:36:15;19.00;;;13.73;;
60344;SDS011;46188;52.324;8.032;2023-01-19T03:39:03;19.13;;;12.63;;
60344;SDS011;46188;52.324;8.032;2023-01-19T03:41:31;18.80;;;11.85;;
60344;SDS011;46188;52.324;8.032;2023-01-19T03:43:58;22.75;;;12.65;;
60344;SDS011;46188;52.324;8.032;2023-01-19T03:46:25;17.80;;;11.90;;
60344;SDS011;46188;52.324;8.032;2023-01-19T03:48:52;22.20;;;12.43;;
60344;SDS011;46188;52.324;8.032;2023-01-19T03:51:18;19.55;;;12.40;;
60344;SDS011;46188;52.324;8.032;2023-01-19T03:53:45;19.60;;;11.98;;
60344;SDS011;46188;52.324;8.032;2023-01-19T03:56:23;18.52;;;12.43;;
60344;SDS011;46188;52.324;8.032;2023-01-19T03:58:49;18.98;;;12.43;;
60344;SDS011;46188;52.324;8.032;2023-01-19T04:01:16;20.05;;;11.32;;
60344;SDS011;46188;52.324;8.032;2023-01-19T04:03:42;19.48;;;12.43;;
60344;SDS011;46188;52.324;8.032;2023-01-19T04:06:08;18.08;;;12.00;;
60344;SDS011;46188;52.324;8.032;2023-01-19T04:08:34;16.92;;;11.45;;
60344;SDS011;46188;52.324;8.032;2023-01-19T04:11:00;19.38;;;12.75;;
60344;SDS011;46188;52.324;8.032;2023-01-19T04:13:26;21.67;;;12.68;;
60344;SDS011;46188;52.324;8.032;2023-01-19T04:15:58;16.58;;;11.75;;
60344;SDS011;46188;52.324;8.032;2023-01-19T04:18:25;18.08;;;12.00;;
60344;SDS011;46188;52.324;8.032;2023-01-19T04:20:52;20.33;;;12.02;;
60344;SDS011;46188;52.324;8.032;2023-01-19T04:23:17;19.02;;;11.95;;
60344;SDS011;46188;52.324;8.032;2023-01-19T04:25:42;18.70;;;11.73;;
60344;SDS011;46188;52.324;8.032;2023-01-19T04:28:08;18.73;;;11.55;;
60344;SDS011;46188;52.324;8.032;2023-01-19T04:30:33;17.92;;;12.27;;
60344;SDS011;46188;52.324;8.032;2023-01-19T04:32:59;17.67;;;11.65;;
60344;SDS011;46188;52.324;8.032;2023-01-19T04:35:24;18.50;;;12.32;;
60344;SDS011;46188;52.324;8.032;2023-01-19T04:37:50;17.65;;;11.48;;
60344;SDS011;46188;52.324;8.032;2023-01-19T04:40:15;19.00;;;11.60;;
60344;SDS011;46188;52.324;8.032;2023-01-19T04:42:44;19.77;;;12.60;;
60344;SDS011;46188;52.324;8.032;2023-01-19T04:45:10;18.02;;;11.52;;
60344;SDS011;46188;52.324;8.032;2023-01-19T04:47:37;15.90;;;11.50;;
60344;SDS011;46188;52.324;8.032;2023-01-19T04:50:03;19.20;;;11.80;;
60344;SDS011;46188;52.324;8.032;2023-01-19T04:52:33;15.65;;;11.05;;
60344;SDS011;46188;52.324;8.032;2023-01-19T04:54:59;17.05;;;10.55;;
60344;SDS011;46188;52.324;8.032;2023-01-19T04:57:29;19.48;;;11.73;;
60344;SDS011;46188;52.324;8.032;2023-01-19T04:59:55;17.05;;;11.50;;
60344;SDS011;46188;52.324;8.032;2023-01-19T05:02:22;21.13;;;12.38;;
60344;SDS011;46188;52.324;8.032;2023-01-19T05:04:48;17.90;;;12.13;;
60344;SDS011;46188;52.324;8.032;2023-01-19T05:07:13;17.77;;;11.10;;
60344;SDS011;46188;52.324;8.032;2023-01-19T05:09:39;15.23;;;10.75;;
60344;SDS011;46188;52.324;8.032;2023-01-19T05:12:04;18.90;;;11.48;;
60344;SDS011;46188;52.324;8.032;2023-01-19T05:14:30;16.60;;;10.75;;
60344;SDS011;46188;52.324;8.032;2023-01-19T05:16:56;17.08;;;11.10;;
60344;SDS011;46188;52.324;8.032;2023-01-19T05:19:21;19.88;;;12.10;;
60344;SDS011;46188;52.324;8.032;2023-01-19T05:21:47;16.42;;;9.95;;
60344;SDS011;46188;52.324;8.032;2023-01-19T05:24:13;16.48;;;11.20;;
60344;SDS011;46188;52.324;8.032;2023-01-19T05:26:39;15.55;;;10.02;;
60344;SDS011;46188;52.324;8.032;2023-01-19T05:29:04;14.88;;;9.85;;
60344;SDS011;46188;52.324;8.032;2023-01-19T05:31:30;17.85;;;10.63;;
60344;SDS011;46188;52.324;8.032;2023-01-19T05:33:55;15.52;;;10.77;;
60344;SDS011;46188;52.324;8.032;2023-01-19T05:36:21;15.80;;;10.88;;
60344;SDS011;46188;52.324;8.032;2023-01-19T05:38:46;14.52;;;10.32;;
60344;SDS011;46188;52.324;8.032;2023-01-19T05:41:12;13.90;;;9.65;;
60344;SDS011;46188;52.324;8.032;2023-01-19T05:43:38;14.85;;;9.65;;
60344;SDS011;46188;52.324;8.032;2023-01-19T05:46:03;14.25;;;9.95;;
60344;SDS011;46188;52.324;8.032;2023-01-19T05:48:29;14.63;;;9.52;;
60344;SDS011;46188;52.324;8.032;2023-01-19T05:50:58;14.23;;;10.10;;
60344;SDS011;46188;52.324;8.032;2023-01-19T05:53:25;14.98;;;10.05;;
60344;SDS011;46188;52.324;8.032;2023-01-19T05:55:52;12.98;;;9.13;;
60344;SDS011;46188;52.324;8.032;2023-01-19T05:58:18;14.90;;;9.73;;
60344;SDS011;46188;52.324;8.032;2023-01-19T06:00:43;13.60;;;10.15;;
60344;SDS011;46188;52.324;8.032;2023-01-19T06:03:09;13.48;;;9.02;;
60344;SDS011;46188;52.324;8.032;2023-01-19T06:05:34;12.05;;;8.93;;
60344;SDS011;46188;52.324;8.032;2023-01-19T06:08:02;14.50;;;9.60;;
60344;SDS011;46188;52.324;8.032;2023-01-19T06:10:27;12.68;;;8.82;;
60344;SDS011;46188;52.324;8.032;2023-01-19T06:12:53;11.85;;;8.73;;
60344;SDS011;46188;52.324;8.032;2023-01-19T06:15:18;11.93;;;8.65;;
60344;SDS011;46188;52.324;8.032;2023-01-19T06:17:44;12.20;;;8.35;;
60344;SDS011;46188;52.324;8.032;2023-01-19T06:20:09;10.45;;;7.78;;
60344;SDS011;46188;52.324;8.032;2023-01-19T06:22:37;12.23;;;7.72;;
60344;SDS011;46188;52.324;8.032;2023-01-19T06:25:03;12.45;;;8.10;;
60344;SDS011;46188;52.324;8.032;2023-01-19T06:27:29;9.48;;;6.60;;
60344;SDS011;46188;52.324;8.032;2023-01-19T06:29:55;10.75;;;7.75;;
60344;SDS011;46188;52.324;8.032;2023-01-19T06:32:20;9.93;;;7.88;;
60344;SDS011;46188;52.324;8.032;2023-01-19T06:34:46;9.85;;;6.82;;
60344;SDS011;46188;52.324;8.032;2023-01-19T06:37:11;10.73;;;7.18;;
60344;SDS011;46188;52.324;8.032;2023-01-19T06:39:37;10.18;;;7.75;;
60344;SDS011;46188;52.324;8.032;2023-01-19T06:42:05;10.40;;;7.90;;
60344;SDS011;46188;52.324;8.032;2023-01-19T06:44:31;9.85;;;7.22;;
60344;SDS011;46188;52.324;8.032;2023-01-19T06:46:56;10.57;;;8.18;;
60344;SDS011;46188;52.324;8.032;2023-01-19T06:49:22;8.63;;;6.80;;
60344;SDS011;46188;52.324;8.032;2023-01-19T06:51:47;9.63;;;7.65;;
60344;SDS011;46188;52.324;8.032;2023-01-19T06:54:13;10.68;;;8.02;;
60344;SDS011;46188;52.324;8.032;2023-01-19T06:56:38;9.60;;;7.40;;
60344;SDS011;46188;52.324;8.032;2023-01-19T06:59:04;9.50;;;7.57;;
60344;SDS011;46188;52.324;8.032;2023-01-19T07:01:29;10.07;;;7.55;;
60344;SDS011;46188;52.324;8.032;2023-01-19T07:03:56;9.18;;;6.93;;
60344;SDS011;46188;52.324;8.032;2023-01-19T07:06:22;8.38;;;6.50;;
60344;SDS011;46188;52.324;8.032;2023-01-19T07:08:48;10.43;;;6.32;;
60344;SDS011;46188;52.324;8.032;2023-01-19T07:11:13;8.43;;;6.82;;
60344;SDS011;46188;52.324;8.032;2023-01-19T07:13:39;8.18;;;6.47;;
60344;SDS011;46188;52.324;8.032;2023-01-19T07:16:05;7.72;;;6.00;;
60344;SDS011;46188;52.324;8.032;2023-01-19T07:18:38;7.50;;;6.25;;
60344;SDS011;46188;52.324;8.032;2023-01-19T07:21:05;10.52;;;6.75;;
60344;SDS011;46188;52.324;8.032;2023-01-19T07:23:31;9.02;;;6.93;;
60344;SDS011;46188;52.324;8.032;2023-01-19T07:25:57;7.63;;;6.03;;
60344;SDS011;46188;52.324;8.032;2023-01-19T07:28:25;7.88;;;5.40;;
60344;SDS011;46188;52.324;8.032;2023-01-19T07:30:52;7.47;;;5.30;;
60344;SDS011;46188;52.324;8.032;2023-01-19T07:33:18;7.30;;;5.88;;
60344;SDS011;46188;52.324;8.032;2023-01-19T07:35:46;7.32;;;5.63;;
60344;SDS011;46188;52.324;8.032;2023-01-19T07:38:12;7.65;;;6.35;;
60344;SDS011;46188;52.324;8.032;2023-01-19T07:40:38;7.32;;;5.90;;
60344;SDS011;46188;52.324;8.032;2023-01-19T07:43:04;7.38;;;5.53;;
60344;SDS011;46188;52.324;8.032;2023-01-19T07:45:29;7.43;;;5.80;;
60344;SDS011;46188;52.324;8.032;2023-01-19T07:47:55;7.18;;;5.53;;
60344;SDS011;46188;52.324;8.032;2023-01-19T07:50:20;5.85;;;5.07;;
60344;SDS011;46188;52.324;8.032;2023-01-19T07:52:48;7.70;;;5.47;;
60344;SDS011;46188;52.324;8.032;2023-01-19T07:55:17;6.95;;;5.20;;
60344;SDS011;46188;52.324;8.032;2023-01-19T07:57:42;6.78;;;4.70;;
60344;SDS011;46188;52.324;8.032;2023-01-19T08:00:09;5.80;;;4.60;;
60344;SDS011;46188;52.324;8.032;2023-01-19T08:02:35;5.68;;;4.57;;
60344;SDS011;46188;52.324;8.032;2023-01-19T08:05:02;6.35;;;4.88;;
60344;SDS011;46188;52.324;8.032;2023-01-19T08:07:27;7.93;;;5.53;;
60344;SDS011;46188;52.324;8.032;2023-01-19T08:09:53;7.93;;;4.82;;
60344;SDS011;46188;52.324;8.032;2023-01-19T08:12:18;6.82;;;5.30;;
60344;SDS011;46188;52.324;8.032;2023-01-19T08:14:44;6.85;;;4.55;;
60344;SDS011;46188;52.324;8.032;2023-01-19T08:17:11;6.82;;;5.03;;
60344;SDS011;46188;52.324;8.032;2023-01-19T08:19:37;6.97;;;5.07;;
60344;SDS011;46188;52.324;8.032;2023-01-19T08:22:03;6.28;;;5.03;;
60344;SDS011;46188;52.324;8.032;2023-01-19T08:24:30;8.38;;;4.97;;
60344;SDS011;46188;52.324;8.032;2023-01-19T08:26:59;6.18;;;5.03;;
60344;SDS011;46188;52.324;8.032;2023-01-19T08:29:26;5.93;;;4.30;;
60344;SDS011;46188;52.324;8.032;2023-01-19T08:31:54;7.10;;;4.78;;
60344;SDS011;46188;52.324;8.032;2023-01-19T08:34:22;8.23;;;5.07;;
60344;SDS011;46188;52.324;8.032;2023-01-19T08:36:48;6.28;;;4.78;;
60344;SDS011;46188;52.324;8.032;2023-01-19T08:39:13;7.07;;;4.75;;
60344;SDS011;46188;52.324;8.032;2023-01-19T08:41:39;9.25;;;5.35;;
60344;SDS011;46188;52.324;8.032;2023-01-19T08:44:04;8.68;;;6.32;;
60344;SDS011;46188;52.324;8.032;2023-01-19T08:46:30;7.30;;;5.13;;
60344;SDS011;46188;52.324;8.032;2023-01-19T08:48:56;10.57;;;5.35;;
60344;SDS011;46188;52.324;8.032;2023-01-19T08:51:21;9.25;;;5.63;;
60344;SDS011;46188;52.324;8.032;2023-01-19T08:53:47;6.45;;;5.15;;
60344;SDS011;46188;52.324;8.032;2023-01-19T08:56:12;8.93;;;5.10;;
60344;SDS011;46188;52.324;8.032;2023-01-19T08:58:38;9.55;;;5.45;;
60344;SDS011;46188;52.324;8.032;2023-01-19T09:01:06;7.75;;;4.90;;
60344;SDS011;46188;52.324;8.032;2023-01-19T09:03:33;7.55;;;5.60;;
60344;SDS011;46188;52.324;8.032;2023-01-19T09:06:01;10.05;;;5.40;;
60344;SDS011;46188;52.324;8.032;2023-01-19T09:08:30;8.30;;;4.47;;
60344;SDS011;46188;52.324;8.032;2023-01-19T09:10:55;8.80;;;5.68;;
60344;SDS011;46188;52.324;8.032;2023-01-19T09:13:21;6.30;;;4.80;;
60344;SDS011;46188;52.324;8.032;2023-01-19T09:15:46;9.98;;;5.50;;
60344;SDS011;46188;52.324;8.032;2023-01-19T09:18:13;9.20;;;5.13;;
60344;SDS011;46188;52.324;8.032;2023-01-19T09:20:41;10.10;;;5.10;;
60344;SDS011;46188;52.324;8.032;2023-01-19T09:23:12;7.30;;;5.20;;
60344;SDS011;46188;52.324;8.032;2023-01-19T09:25:39;7.30;;;4.90;;
60344;SDS011;46188;52.324;8.032;2023-01-19T09:28:06;9.65;;;4.90;;
60344;SDS011;46188;52.324;8.032;2023-01-19T09:30:35;8.45;;;4.82;;
60344;SDS011;46188;52.324;8.032;2023-01-19T09:33:03;7.35;;;4.97;;
60344;SDS011;46188;52.324;8.032;2023-01-19T09:35:35;9.73;;;5.32;;
60344;SDS011;46188;52.324;8.032;2023-01-19T09:38:01;14.25;;;5.88;;
60344;SDS011;46188;52.324;8.032;2023-01-19T09:40:27;16.00;;;5.93;;
60344;SDS011;46188;52.324;8.032;2023-01-19T09:42:57;11.18;;;6.18;;
60344;SDS011;46188;52.324;8.032;2023-01-19T09:50:58;8.80;;;5.53;;
60344;SDS011;46188;52.324;8.032;2023-01-19T09:53:34;11.63;;;5.68;;
60344;SDS011;46188;52.324;8.032;2023-01-19T09:56:22;9.55;;;4.65;;
60344;SDS011;46188;52.324;8.032;2023-01-19T09:58:48;9.60;;;5.15;;
60344;SDS011;46188;52.324;8.032;2023-01-19T10:07:07;7.82;;;5.13;;
60344;SDS011;46188;52.324;8.032;2023-01-19T10:09:43;13.00;;;4.03;;
60344;SDS011;46188;52.324;8.032;2023-01-19T10:15:14;8.75;;;4.10;;
60344;SDS011;46188;52.324;8.032;2023-01-19T10:20:31;12.30;;;3.85;;
60344;SDS011;46188;52.324;8.032;2023-01-19T10:23:03;10.65;;;4.03;;
60344;SDS011;46188;52.324;8.032;2023-01-19T10:25:40;6.72;;;3.13;;
60344;SDS011;46188;52.324;8.032;2023-01-19T10:28:06;10.40;;;4.43;;
60344;SDS011;46188;52.324;8.032;2023-01-19T10:30:34;7.10;;;3.90;;
60344;SDS011;46188;52.324;8.032;2023-01-19T10:32:59;11.02;;;3.90;;
60344;SDS011;46188;52.324;8.032;2023-01-19T10:35:25;12.48;;;3.80;;
60344;SDS011;46188;52.324;8.032;2023-01-19T10:37:57;7.20;;;3.47;;
60344;SDS011;46188;52.324;8.032;2023-01-19T10:46:22;13.63;;;5.38;;
60344;SDS011;46188;52.324;8.032;2023-01-19T10:48:53;11.38;;;5.10;;
60344;SDS011;46188;52.324;8.032;2023-01-19T10:51:19;13.07;;;4.30;;
60344;SDS011;46188;52.324;8.032;2023-01-19T10:53:55;14.68;;;5.50;;
60344;SDS011;46188;52.324;8.032;2023-01-19T10:58:50;8.15;;;3.33;;
60344;SDS011;46188;52.324;8.032;2023-01-19T11:01:25;9.07;;;3.78;;
60344;SDS011;46188;52.324;8.032;2023-01-19T11:03:52;7.28;;;3.40;;
60344;SDS011;46188;52.324;8.032;2023-01-19T11:06:20;10.18;;;3.47;;
60344;SDS011;46188;52.324;8.032;2023-01-19T11:08:50;11.75;;;3.78;;
60344;SDS011;46188;52.324;8.032;2023-01-19T11:11:20;10.95;;;3.20;;
60344;SDS011;46188;52.324;8.032;2023-01-19T11:14:02;7.47;;;3.10;;
60344;SDS011;46188;52.324;8.032;2023-01-19T11:16:34;11.05;;;3.88;;
60344;SDS011;46188;52.324;8.032;2023-01-19T11:19:02;8.50;;;2.80;;
60344;SDS011;46188;52.324;8.032;2023-01-19T11:21:28;9.68;;;2.97;;
60344;SDS011;46188;52.324;8.032;2023-01-19T11:23:59;14.18;;;4.40;;
60344;SDS011;46188;52.324;8.032;2023-01-19T11:26:43;11.15;;;3.38;;
60344;SDS011;46188;52.324;8.032;2023-01-19T11:29:17;10.82;;;3.28;;
60344;SDS011;46188;52.324;8.032;2023-01-19T11:31:52;17.75;;;3.63;;
60344;SDS011;46188;52.324;8.032;2023-01-19T11:34:29;11.30;;;3.00;;
60344;SDS011;46188;52.324;8.032;2023-01-19T11:36:58;9.95;;;3.63;;
60344;SDS011;46188;52.324;8.032;2023-01-19T11:39:27;10.20;;;2.85;;
60344;SDS011;46188;52.324;8.032;2023-01-19T11:41:55;9.55;;;2.85;;
60344;SDS011;46188;52.324;8.032;2023-01-19T11:44:27;10.57;;;3.17;;
60344;SDS011;46188;52.324;8.032;2023-01-19T11:47:01;11.25;;;3.03;;
60344;SDS011;46188;52.324;8.032;2023-01-19T11:49:43;12.07;;;3.33;;
60344;SDS011;46188;52.324;8.032;2023-01-19T11:55:12;9.35;;;3.03;;
60344;SDS011;46188;52.324;8.032;2023-01-19T11:57:58;6.00;;;2.92;;
60344;SDS011;46188;52.324;8.032;2023-01-19T12:00:26;9.38;;;2.78;;
60344;SDS011;46188;52.324;8.032;2023-01-19T12:03:00;8.80;;;3.03;;
60344;SDS011;46188;52.324;8.032;2023-01-19T12:05:32;10.85;;;2.50;;
60344;SDS011;46188;52.324;8.032;2023-01-19T12:07:59;14.00;;;3.55;;
60344;SDS011;46188;52.324;8.032;2023-01-19T12:10:30;10.60;;;3.30;;
60344;SDS011;46188;52.324;8.032;2023-01-19T12:13:00;10.82;;;2.88;;
60344;SDS011;46188;52.324;8.032;2023-01-19T12:15:31;9.70;;;2.97;;
60344;SDS011;46188;52.324;8.032;2023-01-19T12:28:31;7.07;;;2.10;;
60344;SDS011;46188;52.324;8.032;2023-01-19T12:31:01;8.32;;;2.88;;
60344;SDS011;46188;52.324;8.032;2023-01-19T12:38:44;9.35;;;2.88;;
60344;SDS011;46188;52.324;8.032;2023-01-19T12:44:13;6.10;;;1.98;;
60344;SDS011;46188;52.324;8.032;2023-01-19T12:46:33;10.80;;;2.42;;
60344;SDS011;46188;52.324;8.032;2023-01-19T12:49:08;7.72;;;2.58;;
60344;SDS011;46188;52.324;8.032;2023-01-19T12:51:37;9.90;;;2.22;;
60344;SDS011;46188;52.324;8.032;2023-01-19T12:54:03;6.90;;;3.13;;
60344;SDS011;46188;52.324;8.032;2023-01-19T12:56:35;8.48;;;2.30;;
60344;SDS011;46188;52.324;8.032;2023-01-19T12:59:02;11.95;;;2.45;;
60344;SDS011;46188;52.324;8.032;2023-01-19T13:01:29;6.25;;;2.00;;
60344;SDS011;46188;52.324;8.032;2023-01-19T13:09:32;6.50;;;2.00;;
60344;SDS011;46188;52.324;8.032;2023-01-19T13:14:45;10.70;;;2.15;;
60344;SDS011;46188;52.324;8.032;2023-01-19T13:17:32;6.03;;;2.00;;
60344;SDS011;46188;52.324;8.032;2023-01-19T13:20:43;9.50;;;2.40;;
60344;SDS011;46188;52.324;8.032;2023-01-19T13:23:15;8.43;;;2.03;;
60344;SDS011;46188;52.324;8.032;2023-01-19T13:25:45;7.25;;;2.60;;
60344;SDS011;46188;52.324;8.032;2023-01-19T13:28:13;8.02;;;2.55;;
60344;SDS011;46188;52.324;8.032;2023-01-19T13:30:51;7.55;;;2.67;;
60344;SDS011;46188;52.324;8.032;2023-01-19T13:33:21;5.13;;;1.88;;
60344;SDS011;46188;52.324;8.032;2023-01-19T13:35:53;10.35;;;2.53;;
60344;SDS011;46188;52.324;8.032;2023-01-19T13:38:21;10.27;;;3.38;;
60344;SDS011;46188;52.324;8.032;2023-01-19T13:40:47;6.10;;;1.88;;
60344;SDS011;46188;52.324;8.032;2023-01-19T13:43:18;7.22;;;2.20;;
60344;SDS011;46188;52.324;8.032;2023-01-19T13:45:49;8.02;;;2.30;;
60344;SDS011;46188;52.324;8.032;2023-01-19T13:48:17;7.97;;;2.63;;
60344;SDS011;46188;52.324;8.032;2023-01-19T13:51:04;4.30;;;1.90;;
60344;SDS011;46188;52.324;8.032;2023-01-19T13:53:32;9.40;;;2.83;;
60344;SDS011;46188;52.324;8.032;2023-01-19T13:59:30;7.63;;;2.30;;
60344;SDS011;46188;52.324;8.032;2023-01-19T14:01:38;7.53;;;2.75;;
60344;SDS011;46188;52.324;8.032;2023-01-19T14:04:05;8.80;;;2.70;;
60344;SDS011;46188;52.324;8.032;2023-01-19T14:06:46;8.48;;;3.00;;
60344;SDS011;46188;52.324;8.032;2023-01-19T14:09:18;10.52;;;3.03;;
60344;SDS011;46188;52.324;8.032;2023-01-19T14:11:45;7.25;;;2.63;;
60344;SDS011;46188;52.324;8.032;2023-01-19T14:14:29;8.32;;;3.22;;
60344;SDS011;46188;52.324;8.032;2023-01-19T14:16:55;7.35;;;3.15;;
60344;SDS011;46188;52.324;8.032;2023-01-19T14:19:21;8.55;;;2.88;;
60344;SDS011;46188;52.324;8.032;2023-01-19T14:21:56;9.18;;;3.08;;
60344;SDS011;46188;52.324;8.032;2023-01-19T14:24:29;8.70;;;2.58;;
60344;SDS011;46188;52.324;8.032;2023-01-19T14:29:43;7.20;;;2.85;;
60344;SDS011;46188;52.324;8.032;2023-01-19T14:32:12;9.38;;;2.67;;
60344;SDS011;46188;52.324;8.032;2023-01-19T14:37:43;6.45;;;3.15;;
60344;SDS011;46188;52.324;8.032;2023-01-19T14:42:37;9.77;;;3.38;;
60344;SDS011;46188;52.324;8.032;2023-01-19T14:47:40;10.05;;;3.42;;
60344;SDS011;46188;52.324;8.032;2023-01-19T14:50:17;8.82;;;3.45;;
60344;SDS011;46188;52.324;8.032;2023-01-19T14:52:51;7.93;;;4.13;;
60344;SDS011;46188;52.324;8.032;2023-01-19T14:58:00;8.57;;;4.68;;
60344;SDS011;46188;52.324;8.032;2023-01-19T15:00:26;10.77;;;4.25;;
60344;SDS011;46188;52.324;8.032;2023-01-19T15:02:51;10.30;;;4.75;;
60344;SDS011;46188;52.324;8.032;2023-01-19T15:05:17;8.90;;;4.38;;
60344;SDS011;46188;52.324;8.032;2023-01-19T15:07:44;12.75;;;4.93;;
60344;SDS011;46188;52.324;8.032;2023-01-19T15:10:18;9.95;;;4.90;;
60344;SDS011;46188;52.324;8.032;2023-01-19T15:12:46;10.63;;;4.97;;
60344;SDS011;46188;52.324;8.032;2023-01-19T15:15:14;13.15;;;5.88;;
60344;SDS011;46188;52.324;8.032;2023-01-19T15:17:41;8.75;;;4.68;;
60344;SDS011;46188;52.324;8.032;2023-01-19T15:20:14;8.07;;;4.70;;
60344;SDS011;46188;52.324;8.032;2023-01-19T15:22:41;13.15;;;5.90;;
60344;SDS011;46188;52.324;8.032;2023-01-19T15:25:08;14.00;;;5.57;;
60344;SDS011;46188;52.324;8.032;2023-01-19T15:27:36;16.25;;;5.78;;
60344;SDS011;46188;52.324;8.032;2023-01-19T15:30:01;11.18;;;6.18;;
60344;SDS011;46188;52.324;8.032;2023-01-19T15:32:27;11.43;;;6.40;;
60344;SDS011;46188;52.324;8.032;2023-01-19T15:34:53;11.48;;;6.25;;
60344;SDS011;46188;52.324;8.032;2023-01-19T15:37:18;15.48;;;6.20;;
60344;SDS011;46188;52.324;8.032;2023-01-19T15:39:43;14.55;;;6.43;;
60344;SDS011;46188;52.324;8.032;2023-01-19T15:42:14;12.65;;;6.88;;
60344;SDS011;46188;52.324;8.032;2023-01-19T15:44:40;11.32;;;6.20;;
60344;SDS011;46188;52.324;8.032;2023-01-19T15:47:05;12.32;;;6.53;;
60344;SDS011;46188;52.324;8.032;2023-01-19T15:49:31;14.18;;;6.25;;
60344;SDS011;46188;52.324;8.032;2023-01-19T15:51:56;17.38;;;7.20;;
60344;SDS011;46188;52.324;8.032;2023-01-19T15:54:21;11.77;;;6.63;;
60344;SDS011;46188;52.324;8.032;2023-01-19T15:56:47;12.15;;;6.68;;
60344;SDS011;46188;52.324;8.032;2023-01-19T15:59:12;13.90;;;7.50;;
60344;SDS011;46188;52.324;8.032;2023-01-19T16:01:38;14.38;;;7.20;;
60344;SDS011;46188;52.324;8.032;2023-01-19T16:04:05;12.15;;;7.43;;
60344;SDS011;46188;52.324;8.032;2023-01-19T16:06:31;13.82;;;7.68;;
60344;SDS011;46188;52.324;8.032;2023-01-19T16:08:58;13.90;;;9.45;;
60344;SDS011;46188;52.324;8.032;2023-01-19T16:11:25;15.68;;;8.75;;